createdAt,value
2023-04-05T00:01:08.324Z,0.00
2023-04-05T00:03:36.718Z,-0.10
2023-04-05T00:06:05.630Z,0.00
2023-04-05T00:08:33.307Z,0.00
2023-04-05T00:11:03.884Z,0.00
2023-04-05T00:13:31.556Z,0.00
2023-04-05T00:16:01.492Z,0.00
2023-04-05T00:18:34.477Z,0.10
2023-04-05T00:21:02.330Z,0.10
2023-04-05T00:23:37.578Z,0.00
2023-04-05T00:26:05.653Z,0.10
2023-04-05T00:28:33.266Z,-0.10
2023-04-05T00:31:01.484Z,-0.30
2023-04-05T00:33:29.024Z,-0.10
2023-04-05T00:35:56.757Z,-0.20
2023-04-05T00:38:26.019Z,-0.20
2023-04-05T00:40:53.577Z,-0.10
2023-04-05T00:43:21.413Z,-0.20
2023-04-05T00:45:49.019Z,-0.20
2023-04-05T00:48:17.506Z,-0.10
2023-04-05T00:50:47.092Z,0.00
2023-04-05T00:53:16.138Z,-0.20
2023-04-05T00:55:44.110Z,-0.10
2023-04-05T00:58:12.827Z,0.00
2023-04-05T01:00:42.697Z,-0.10
2023-04-05T01:03:10.981Z,-0.10
2023-04-05T01:05:47.407Z,0.00
2023-04-05T01:08:20.750Z,0.00
2023-04-05T01:11:00.551Z,-0.20
2023-04-05T01:13:30.686Z,-0.10
2023-04-05T01:15:58.645Z,-0.10
2023-04-05T01:18:27.284Z,-0.10
2023-04-05T01:21:34.180Z,-0.20
2023-04-05T01:24:04.872Z,-0.10
2023-04-05T01:27:00.968Z,-0.10
2023-04-05T01:29:50.855Z,-0.30
2023-04-05T01:32:42.245Z,-0.40
2023-04-05T01:35:34.936Z,-0.30
2023-04-05T01:38:05.618Z,-0.40
2023-04-05T01:40:36.051Z,-0.40
2023-04-05T01:43:12.560Z,-0.30
2023-04-05T01:45:41.619Z,-0.30
2023-04-05T01:48:11.589Z,-0.40
2023-04-05T01:50:39.453Z,-0.40
2023-04-05T01:53:08.937Z,-0.50
2023-04-05T01:55:36.646Z,-0.40
2023-04-05T01:58:04.669Z,-0.50
2023-04-05T02:00:32.670Z,-0.70
2023-04-05T02:03:00.471Z,-0.70
2023-04-05T02:05:28.549Z,-0.50
2023-04-05T02:07:56.126Z,-0.40
2023-04-05T02:10:24.740Z,-0.50
2023-04-05T02:12:52.658Z,-0.70
2023-04-05T02:15:20.242Z,-0.70
2023-04-05T02:17:47.828Z,-0.60
2023-04-05T02:20:15.817Z,-0.60
2023-04-05T02:22:45.622Z,-0.60
2023-04-05T02:25:14.024Z,-0.70
2023-04-05T02:27:41.953Z,-0.80
2023-04-05T02:30:10.624Z,-0.70
2023-04-05T02:32:38.356Z,-0.70
2023-04-05T02:35:06.699Z,-0.80
2023-04-05T02:37:34.485Z,-0.80
2023-04-05T02:40:04.690Z,-0.90
2023-04-05T02:42:32.356Z,-0.90
2023-04-05T02:44:59.916Z,-0.80
2023-04-05T02:47:28.177Z,-0.60
2023-04-05T02:49:59.157Z,-0.70
2023-04-05T02:52:32.500Z,-0.90
2023-04-05T02:55:00.294Z,-0.70
2023-04-05T02:57:32.372Z,-0.70
2023-04-05T03:00:11.460Z,-0.70
2023-04-05T03:02:40.082Z,-0.80
2023-04-05T03:05:09.912Z,-0.90
2023-04-05T03:07:38.309Z,-0.90
2023-04-05T03:10:10.589Z,-1.00
2023-04-05T03:12:41.476Z,-1.10
2023-04-05T03:15:11.194Z,-1.00
2023-04-05T03:17:44.487Z,-0.70
2023-04-05T03:20:13.736Z,-0.80
2023-04-05T03:22:42.574Z,-1.20
2023-04-05T03:25:11.628Z,-1.20
2023-04-05T03:27:46.101Z,-1.00
2023-04-05T03:30:17.036Z,-1.10
2023-04-05T03:32:51.986Z,-1.30
2023-04-05T03:35:36.997Z,-1.20
2023-04-05T03:38:09.322Z,-1.20
2023-04-05T03:40:41.646Z,-1.20
2023-04-05T03:43:11.521Z,-1.30
2023-04-05T03:45:39.454Z,-1.50
2023-04-05T03:48:07.307Z,-1.40
2023-04-05T03:50:34.987Z,-1.50
2023-04-05T03:53:03.474Z,-1.60
2023-04-05T03:55:32.232Z,-1.50
2023-04-05T03:58:04.303Z,-1.50
2023-04-05T04:00:36.205Z,-1.40
2023-04-05T04:03:15.387Z,-1.30
2023-04-05T04:05:47.389Z,-1.50
2023-04-05T04:08:15.071Z,-1.60
2023-04-05T04:10:42.750Z,-1.50
2023-04-05T04:13:31.543Z,-1.70
2023-04-05T04:16:19.388Z,-1.90
2023-04-05T04:18:57.365Z,-1.70
2023-04-05T04:21:45.801Z,-1.80
2023-04-05T04:24:32.741Z,-1.70
2023-04-05T04:27:26.304Z,-1.80
2023-04-05T04:30:15.013Z,-1.60
2023-04-05T04:33:07.418Z,-1.70
2023-04-05T04:35:56.423Z,-1.60
2023-04-05T04:38:45.057Z,-1.90
2023-04-05T04:41:47.331Z,-1.80
2023-04-05T04:44:42.808Z,-1.70
2023-04-05T04:47:26.201Z,-1.70
2023-04-05T04:50:16.298Z,-1.70
2023-04-05T04:52:43.960Z,-1.50
2023-04-05T04:55:15.212Z,-1.60
2023-04-05T04:57:47.901Z,-1.50
2023-04-05T05:00:16.776Z,-1.50
2023-04-05T05:02:45.081Z,-1.50
2023-04-05T05:05:15.796Z,-1.40
2023-04-05T05:07:43.516Z,-1.20
2023-04-05T05:10:12.332Z,-1.00
2023-04-05T05:12:40.023Z,-0.90
2023-04-05T05:15:11.342Z,-0.60
2023-04-05T05:17:39.769Z,-0.40
2023-04-05T05:20:11.049Z,-0.10
2023-04-05T05:22:39.861Z,0.20
2023-04-05T05:25:10.108Z,0.60
2023-04-05T05:27:37.795Z,0.90
2023-04-05T05:30:06.109Z,1.30
2023-04-05T05:32:33.849Z,1.20
2023-04-05T05:35:01.567Z,1.40
2023-04-05T05:37:33.841Z,1.90
2023-04-05T05:40:01.658Z,2.10
2023-04-05T05:42:29.310Z,1.60
2023-04-05T05:44:56.982Z,2.10
2023-04-05T05:47:24.669Z,2.20
2023-04-05T05:49:52.480Z,2.40
2023-04-05T05:52:20.171Z,1.80
2023-04-05T05:54:47.758Z,2.00
2023-04-05T05:57:15.605Z,2.00
2023-04-05T05:59:43.513Z,2.10
2023-04-05T06:02:11.531Z,1.90
2023-04-05T06:04:39.209Z,1.50
2023-04-05T06:07:06.941Z,1.60
2023-04-05T06:09:35.419Z,2.10
2023-04-05T06:12:03.106Z,2.80
2023-04-05T06:14:31.252Z,3.20
2023-04-05T06:16:58.924Z,3.40
2023-04-05T06:19:26.537Z,2.90
2023-04-05T06:21:55.137Z,3.20
2023-04-05T06:24:22.759Z,3.40
2023-04-05T06:26:51.961Z,3.10
2023-04-05T06:29:19.912Z,2.50
2023-04-05T06:31:48.509Z,2.70
2023-04-05T06:34:16.520Z,3.20
2023-04-05T06:36:46.735Z,3.50
2023-04-05T06:39:14.956Z,3.40
2023-04-05T06:41:42.616Z,3.30
2023-04-05T06:44:10.517Z,3.70
2023-04-05T06:46:38.383Z,3.80
2023-04-05T06:49:06.421Z,4.20
2023-04-05T06:51:34.129Z,4.20
2023-04-05T06:54:01.765Z,4.20
2023-04-05T06:56:29.407Z,4.00
2023-04-05T06:58:59.249Z,4.20
2023-04-05T07:01:27.662Z,4.20
2023-04-05T07:03:55.786Z,4.10
2023-04-05T07:06:24.751Z,4.10
2023-04-05T07:08:52.790Z,4.30
2023-04-05T07:11:21.652Z,4.50
2023-04-05T07:13:49.282Z,4.70
2023-04-05T07:16:19.421Z,4.40
2023-04-05T07:18:47.099Z,4.50
2023-04-05T07:21:15.042Z,4.30
2023-04-05T07:23:43.090Z,4.40
2023-04-05T07:26:12.463Z,4.60
2023-04-05T07:28:40.151Z,4.60
2023-04-05T07:31:08.273Z,4.50
2023-04-05T07:33:36.604Z,4.90
2023-04-05T07:36:04.717Z,4.70
2023-04-05T07:38:32.522Z,4.80
2023-04-05T07:41:00.555Z,4.90
2023-04-05T07:43:28.171Z,4.50
2023-04-05T07:46:03.146Z,4.70
2023-04-05T07:48:31.545Z,5.00
2023-04-05T07:51:10.333Z,5.40
2023-04-05T07:53:38.328Z,5.50
2023-04-05T07:56:14.260Z,5.10
2023-04-05T07:58:42.388Z,5.00
2023-04-05T08:01:11.285Z,4.60
2023-04-05T08:03:40.168Z,4.40
2023-04-05T08:06:19.013Z,4.90
2023-04-05T08:08:47.502Z,4.60
2023-04-05T08:11:15.795Z,4.40
2023-04-05T08:13:43.990Z,4.30
2023-04-05T08:16:12.086Z,4.40
2023-04-05T08:18:39.778Z,4.40
2023-04-05T08:21:07.516Z,4.30
2023-04-05T08:23:35.139Z,3.90
2023-04-05T08:26:03.045Z,4.50
2023-04-05T08:28:30.754Z,4.50
2023-04-05T08:30:58.468Z,4.60
2023-04-05T08:33:28.712Z,4.60
2023-04-05T08:35:57.253Z,4.40
2023-04-05T08:38:25.321Z,4.30
2023-04-05T08:40:53.054Z,4.60
2023-04-05T08:43:59.507Z,4.30
2023-04-05T08:46:28.846Z,4.70
2023-04-05T08:48:58.571Z,4.90
2023-04-05T08:51:27.842Z,4.50
2023-04-05T08:53:55.876Z,4.70
2023-04-05T08:56:31.983Z,4.90
2023-04-05T08:59:11.401Z,4.80
2023-04-05T09:01:44.040Z,4.80
2023-04-05T09:04:21.601Z,5.30
2023-04-05T09:06:51.379Z,5.20
2023-04-05T09:09:21.766Z,4.60
2023-04-05T09:11:51.132Z,5.00
2023-04-05T09:14:20.973Z,5.60
2023-04-05T09:16:48.921Z,5.50
2023-04-05T09:19:16.527Z,5.70
2023-04-05T09:22:06.176Z,6.00
2023-04-05T09:24:42.686Z,5.60
2023-04-05T09:27:14.335Z,5.40
2023-04-05T09:29:46.994Z,5.70
2023-04-05T09:32:16.076Z,5.80
2023-04-05T09:34:44.739Z,5.90
2023-04-05T09:37:21.606Z,5.70
2023-04-05T09:39:52.325Z,5.70
2023-04-05T09:42:25.003Z,5.20
2023-04-05T09:44:54.015Z,5.70
2023-04-05T09:47:31.301Z,7.00
2023-04-05T09:50:07.166Z,6.10
2023-04-05T09:52:36.724Z,6.40
2023-04-05T09:55:06.886Z,6.60
2023-04-05T09:57:36.803Z,6.50
2023-04-05T10:00:06.992Z,6.80
2023-04-05T10:02:42.452Z,7.00
2023-04-05T10:05:16.178Z,6.80
2023-04-05T10:07:44.667Z,6.70
2023-04-05T10:10:13.826Z,6.70
2023-04-05T10:12:42.142Z,6.40
2023-04-05T10:15:11.360Z,6.00
2023-04-05T10:17:53.607Z,6.20
2023-04-05T10:20:25.939Z,6.20
2023-04-05T10:23:30.623Z,6.80
2023-04-05T10:26:08.293Z,6.80
2023-04-05T10:28:37.600Z,7.10
2023-04-05T10:31:27.044Z,7.10
2023-04-05T10:34:14.397Z,7.10
2023-04-05T10:36:57.086Z,6.90
2023-04-05T10:39:47.292Z,6.80
2023-04-05T10:42:24.561Z,7.10
2023-04-05T10:45:00.244Z,7.40
2023-04-05T10:47:30.890Z,7.50
2023-04-05T10:50:04.020Z,6.80
2023-04-05T10:52:33.069Z,7.20
2023-04-05T10:55:03.566Z,7.40
2023-04-05T10:57:32.673Z,6.70
2023-04-05T11:00:01.241Z,6.40
2023-04-05T11:02:30.752Z,6.90
2023-04-05T11:05:05.118Z,7.20
2023-04-05T11:07:47.492Z,7.50
2023-04-05T11:10:19.309Z,7.70
2023-04-05T11:12:47.282Z,8.00
2023-04-05T11:15:41.597Z,7.70
2023-04-05T11:18:22.362Z,7.80
2023-04-05T11:20:57.773Z,7.40
2023-04-05T11:23:25.833Z,7.50
2023-04-05T11:26:05.114Z,7.60
2023-04-05T11:28:37.879Z,7.80
2023-04-05T11:31:13.067Z,8.60
2023-04-05T11:33:59.942Z,8.10
2023-04-05T11:36:39.203Z,7.30
2023-04-05T11:39:27.584Z,7.70
2023-04-05T11:42:06.074Z,7.70
2023-04-05T11:44:48.316Z,7.50
2023-04-05T11:47:22.032Z,7.90
2023-04-05T11:49:51.391Z,7.60
2023-04-05T11:52:21.375Z,7.90
2023-04-05T11:54:51.473Z,7.50
2023-04-05T11:57:22.507Z,8.30
2023-04-05T11:59:52.263Z,8.00
2023-04-05T12:02:20.795Z,7.90
2023-04-05T12:04:57.441Z,7.80
2023-04-05T12:07:29.752Z,7.90
2023-04-05T12:09:58.828Z,7.60
2023-04-05T12:12:26.717Z,7.60
2023-04-05T12:15:00.572Z,7.30
2023-04-05T12:17:49.746Z,7.90
2023-04-05T12:20:20.903Z,8.10
2023-04-05T12:22:50.228Z,7.60
2023-04-05T12:25:19.122Z,7.60
2023-04-05T12:27:47.096Z,7.50
2023-04-05T12:30:16.261Z,7.40
2023-04-05T12:32:51.263Z,8.40
2023-04-05T12:35:20.227Z,8.30
2023-04-05T12:37:50.795Z,7.40
2023-04-05T12:40:25.062Z,7.80
2023-04-05T12:42:52.799Z,8.00
2023-04-05T12:45:24.041Z,7.90
2023-04-05T12:47:56.668Z,7.90
2023-04-05T12:50:29.576Z,7.40
2023-04-05T12:52:59.449Z,7.70
2023-04-05T12:55:29.079Z,7.70
2023-04-05T12:58:02.141Z,7.60
2023-04-05T13:00:31.200Z,7.40
2023-04-05T13:03:00.154Z,7.60
2023-04-05T13:05:29.761Z,7.40
2023-04-05T13:07:58.265Z,7.60
2023-04-05T13:10:26.519Z,7.80
2023-04-05T13:12:54.264Z,7.70
2023-04-05T13:15:22.230Z,7.60
2023-04-05T13:17:50.853Z,7.80
2023-04-05T13:20:19.453Z,8.00
2023-04-05T13:22:47.517Z,7.90
2023-04-05T13:25:15.579Z,8.00
2023-04-05T13:27:43.851Z,8.20
2023-04-05T13:30:11.958Z,8.70
2023-04-05T13:32:39.687Z,8.30
2023-04-05T13:35:08.145Z,7.90
2023-04-05T13:37:36.463Z,8.20
2023-04-05T13:40:04.449Z,8.80
2023-04-05T13:42:32.000Z,8.20
2023-04-05T13:44:59.823Z,7.90
2023-04-05T13:47:27.428Z,7.70
2023-04-05T13:49:55.067Z,8.50
2023-04-05T13:52:22.924Z,8.50
2023-04-05T13:55:03.303Z,8.10
2023-04-05T13:57:32.537Z,8.40
2023-04-05T14:00:00.497Z,8.60
2023-04-05T14:02:29.021Z,8.10
2023-04-05T14:04:57.021Z,8.10
2023-04-05T14:07:25.396Z,7.80
2023-04-05T14:09:53.128Z,8.00
2023-04-05T14:12:20.913Z,8.10
2023-04-05T14:14:48.517Z,8.30
2023-04-05T14:17:16.303Z,8.50
2023-04-05T14:19:44.269Z,8.20
2023-04-05T14:22:11.912Z,8.20
2023-04-05T14:24:39.458Z,8.20
2023-04-05T14:27:07.125Z,8.40
2023-04-05T14:29:34.695Z,8.30
2023-04-05T14:32:02.821Z,8.30
2023-04-05T14:34:31.615Z,8.60
2023-04-05T14:37:01.262Z,8.80
2023-04-05T14:39:29.226Z,9.10
2023-04-05T14:41:56.855Z,9.00
2023-04-05T14:44:26.096Z,8.80
2023-04-05T14:46:53.784Z,9.20
2023-04-05T14:49:21.722Z,8.60
2023-04-05T14:51:49.332Z,8.80
2023-04-05T14:54:17.180Z,9.00
2023-04-05T14:56:44.881Z,9.10
2023-04-05T14:59:12.613Z,8.80
2023-04-05T15:01:42.963Z,8.90
2023-04-05T15:04:10.805Z,8.90
2023-04-05T15:06:38.409Z,8.70
2023-04-05T15:09:06.192Z,8.60
2023-04-05T15:11:36.192Z,8.00
2023-04-05T15:14:04.221Z,8.50
2023-04-05T15:16:31.903Z,8.70
2023-04-05T15:18:59.645Z,8.70
2023-04-05T15:21:27.730Z,8.40
2023-04-05T15:23:56.078Z,8.40
2023-04-05T15:26:23.703Z,8.10
2023-04-05T15:28:51.373Z,7.90
2023-04-05T15:31:19.063Z,8.00
2023-04-05T15:33:46.793Z,8.20
2023-04-05T15:36:14.396Z,8.20
2023-04-05T15:38:42.135Z,8.20
2023-04-05T15:41:10.046Z,8.00
2023-04-05T15:43:38.580Z,8.20
2023-04-05T15:46:06.557Z,8.10
2023-04-05T15:48:34.284Z,7.80
2023-04-05T15:51:02.018Z,8.00
2023-04-05T15:53:29.637Z,8.10
2023-04-05T15:55:58.461Z,8.10
2023-04-05T15:58:26.122Z,8.60
2023-04-05T16:00:53.860Z,8.30
2023-04-05T16:03:21.631Z,8.00
2023-04-05T16:05:49.194Z,7.70
2023-04-05T16:08:17.051Z,7.60
2023-04-05T16:10:45.260Z,7.80
2023-04-05T16:13:12.906Z,7.80
2023-04-05T16:15:40.556Z,7.70
2023-04-05T16:18:10.122Z,7.60
2023-04-05T16:20:38.530Z,7.80
2023-04-05T16:23:06.432Z,7.80
2023-04-05T16:25:34.185Z,7.70
2023-04-05T16:28:01.929Z,7.60
2023-04-05T16:30:29.600Z,7.50
2023-04-05T16:32:57.620Z,7.40
2023-04-05T16:35:25.614Z,7.40
2023-04-05T16:37:53.240Z,7.40
2023-04-05T16:40:21.174Z,7.30
2023-04-05T16:42:48.750Z,7.10
2023-04-05T16:45:16.501Z,7.20
2023-04-05T16:47:44.171Z,7.10
2023-04-05T16:50:12.034Z,6.90
2023-04-05T16:52:39.626Z,6.80
2023-04-05T16:55:08.229Z,6.80
2023-04-05T16:57:36.020Z,6.80
2023-04-05T17:00:04.879Z,6.70
2023-04-05T17:02:32.765Z,6.60
2023-04-05T17:05:00.345Z,6.60
2023-04-05T17:07:28.038Z,6.50
2023-04-05T17:09:57.440Z,6.40
2023-04-05T17:12:25.166Z,6.40
2023-04-05T17:14:52.832Z,6.30
2023-04-05T17:17:20.514Z,6.00
2023-04-05T17:19:48.267Z,5.80
2023-04-05T17:22:15.890Z,5.40
2023-04-05T17:24:46.150Z,5.50
2023-04-05T17:27:13.833Z,5.40
2023-04-05T17:29:41.469Z,5.10
2023-04-05T17:32:09.129Z,5.20
2023-04-05T17:34:36.783Z,5.10
2023-04-05T17:37:04.916Z,5.00
2023-04-05T17:39:32.564Z,4.90
2023-04-05T17:42:00.196Z,4.80
2023-04-05T17:44:30.592Z,4.70
2023-04-05T17:47:08.667Z,4.60
2023-04-05T17:49:37.651Z,4.60
2023-04-05T17:52:08.818Z,4.40
2023-04-05T17:54:37.205Z,4.40
2023-04-05T17:57:15.611Z,4.30
2023-04-05T17:59:44.302Z,4.30
2023-04-05T18:02:12.415Z,4.20
2023-04-05T18:04:41.164Z,4.20
2023-04-05T18:07:10.258Z,4.10
2023-04-05T18:09:42.152Z,4.10
2023-04-05T18:12:10.759Z,4.00
2023-04-05T18:14:38.662Z,3.70
2023-04-05T18:17:07.506Z,3.70
2023-04-05T18:19:35.781Z,3.50
2023-04-05T18:22:03.382Z,3.60
2023-04-05T18:24:31.278Z,3.60
2023-04-05T18:27:01.950Z,3.50
2023-04-05T18:29:30.846Z,3.40
2023-04-05T18:31:58.551Z,3.40
2023-04-05T18:34:26.491Z,3.30
2023-04-05T18:36:54.146Z,3.30
2023-04-05T18:39:22.181Z,3.30
2023-04-05T18:41:50.245Z,3.30
2023-04-05T18:44:18.089Z,3.20
2023-04-05T18:46:45.774Z,3.00
2023-04-05T18:49:16.018Z,3.00
2023-04-05T18:51:43.693Z,3.20
2023-04-05T18:54:11.450Z,3.10
2023-04-05T18:56:39.397Z,3.20
2023-04-05T18:59:07.615Z,3.10
2023-04-05T19:01:35.723Z,3.10
2023-04-05T19:04:05.128Z,3.40
2023-04-05T19:06:34.788Z,3.50
2023-04-05T19:09:02.950Z,3.40
2023-04-05T19:11:30.591Z,3.50
2023-04-05T19:14:01.826Z,3.30
2023-04-05T19:16:30.582Z,3.10
2023-04-05T19:18:59.248Z,3.20
2023-04-05T19:21:27.669Z,3.20
2023-04-05T19:23:56.159Z,3.10
2023-04-05T19:26:24.039Z,3.20
2023-04-05T19:28:53.190Z,3.40
2023-04-05T19:31:20.971Z,3.40
2023-04-05T19:33:50.524Z,3.50
2023-04-05T19:36:18.643Z,3.50
2023-04-05T19:38:47.433Z,3.40
2023-04-05T19:41:16.119Z,3.40
2023-04-05T19:43:44.344Z,3.30
2023-04-05T19:46:16.204Z,3.20
2023-04-05T19:48:46.873Z,3.20
2023-04-05T19:51:18.128Z,3.10
2023-04-05T19:53:54.282Z,3.20
2023-04-05T19:56:29.917Z,3.30
2023-04-05T19:59:01.757Z,3.50
2023-04-05T20:01:35.149Z,3.80
2023-04-05T20:04:18.850Z,3.80
2023-04-05T20:06:53.159Z,3.80
2023-04-05T20:09:31.141Z,3.70
2023-04-05T20:12:01.506Z,3.70
2023-04-05T20:14:33.678Z,3.70
2023-04-05T20:17:01.639Z,3.60
2023-04-05T20:19:31.032Z,3.60
2023-04-05T20:22:03.145Z,3.60
2023-04-05T20:24:31.587Z,3.30
2023-04-05T20:26:59.503Z,3.30
2023-04-05T20:29:29.441Z,3.20
2023-04-05T20:31:57.334Z,3.30
2023-04-05T20:34:31.090Z,3.20
2023-04-05T20:37:03.432Z,3.20
2023-04-05T20:39:31.578Z,3.00
2023-04-05T20:42:00.194Z,3.00
2023-04-05T20:44:28.321Z,2.70
2023-04-05T20:46:58.085Z,2.70
2023-04-05T20:49:29.227Z,2.60
2023-04-05T20:51:57.808Z,2.60
2023-04-05T20:54:25.646Z,2.50
2023-04-05T20:56:53.382Z,2.40
2023-04-05T20:59:21.808Z,2.40
2023-04-05T21:01:49.522Z,2.40
2023-04-05T21:04:17.241Z,2.30
2023-04-05T21:06:45.007Z,2.20
2023-04-05T21:09:12.750Z,2.20
2023-04-05T21:11:40.378Z,2.10
2023-04-05T21:14:08.237Z,1.80
2023-04-05T21:16:35.922Z,1.80
2023-04-05T21:19:03.438Z,1.70
2023-04-05T21:21:31.420Z,1.40
2023-04-05T21:23:58.972Z,1.50
2023-04-05T21:26:26.620Z,1.30
2023-04-05T21:28:54.491Z,1.30
2023-04-05T21:31:24.977Z,1.30
2023-04-05T21:33:52.556Z,1.20
2023-04-05T21:36:20.145Z,1.00
2023-04-05T21:38:48.763Z,1.00
2023-04-05T21:41:16.654Z,0.90
2023-04-05T21:43:44.629Z,0.80
2023-04-05T21:46:12.587Z,0.90
2023-04-05T21:48:40.389Z,0.90
2023-04-05T21:51:08.060Z,0.90
2023-04-05T21:53:35.970Z,0.90
2023-04-05T21:56:03.776Z,0.80
2023-04-05T21:58:31.362Z,0.70
2023-04-05T22:01:00.034Z,0.70
2023-04-05T22:03:27.798Z,0.80
2023-04-05T22:05:55.505Z,0.80
2023-04-05T22:08:23.266Z,0.60
2023-04-05T22:10:51.031Z,0.70
2023-04-05T22:13:18.786Z,0.70
2023-04-05T22:15:46.909Z,0.60
2023-04-05T22:18:14.768Z,0.50
2023-04-05T22:20:42.396Z,0.40
2023-04-05T22:23:10.357Z,0.20
2023-04-05T22:25:37.958Z,0.30
2023-04-05T22:28:05.708Z,0.10
2023-04-05T22:30:43.778Z,0.20
2023-04-05T22:33:15.191Z,-0.10
2023-04-05T22:35:43.073Z,0.00
2023-04-05T22:38:11.151Z,-0.10
2023-04-05T22:40:38.879Z,0.00
2023-04-05T22:43:06.660Z,0.10
2023-04-05T22:45:34.256Z,0.20
2023-04-05T22:48:02.615Z,0.20
2023-04-05T22:50:30.659Z,0.10
2023-04-05T22:52:58.749Z,0.00
2023-04-05T22:55:26.390Z,0.00
2023-04-05T22:57:54.029Z,-0.10
2023-04-05T23:00:22.082Z,-0.10
2023-04-05T23:02:49.706Z,0.00
2023-04-05T23:05:17.394Z,0.10
2023-04-05T23:07:45.065Z,0.10
2023-04-05T23:10:12.730Z,0.10
2023-04-05T23:12:40.432Z,0.00
2023-04-05T23:15:08.497Z,-0.10
2023-04-05T23:17:36.822Z,0.00
2023-04-05T23:20:06.058Z,-0.10
2023-04-05T23:22:36.076Z,-0.10
2023-04-05T23:25:04.940Z,-0.10
2023-04-05T23:27:32.562Z,-0.10
2023-04-05T23:30:00.554Z,-0.10
2023-04-05T23:32:28.584Z,-0.10
2023-04-05T23:34:56.634Z,-0.20
2023-04-05T23:37:24.292Z,-0.20
2023-04-05T23:39:51.903Z,-0.30
2023-04-05T23:42:19.532Z,-0.10
2023-04-05T23:44:47.145Z,-0.20
2023-04-05T23:47:14.831Z,-0.20
2023-04-05T23:49:42.434Z,-0.30
2023-04-05T23:52:10.060Z,-0.30
2023-04-05T23:54:37.670Z,-0.50
2023-04-05T23:57:05.722Z,-0.40
2023-04-05T23:59:33.796Z,-0.50
